LELC/MJV METAR and TAF weather

Enter ICAO airport designator
Station Type Date Time Source
LELC METAR 2019/10/15 21:30 UTC NOAA

LELC 152130Z AUTO 30005KT 9000 NCD 15/11 Q1021


Station Type Date Time Source
LELC Decoded METAR 2019/10/15 21:30 UTC NOAA

Murcia / San Javier, Spain (LELC) 37-47N 000-48W 3M
Oct 15, 2019 - 05:30 PM EDT / 2019.10.15 2130 UTC
Wind: from the WNW (300 degrees) at 6 MPH (5 KT):0
Visibility: 5 mile(s):0
Temperature: 59 F (15 C)
Dew Point: 51 F (11 C)
Relative Humidity: 76%
Pressure (altimeter): 30.15 in. Hg (1021 hPa)
ob: LELC 152130Z AUTO 30005KT 9000 NCD 15/11 Q1021
cycle: 21

Station Type Date Time Source
LELC TAF 2019/10/15 18:30 UTC NOAA

TAF COR TAF COR LELC 151725Z 1518/1618 27005KT CAVOK TX25/1614Z TN14/1606Z
BECMG 1611/1613 14010KT

Example: see airport list